Time;durP1;ratioP1;P1;durP2;ratioP2;P2;SDS_P1;SDS_P2;PMS_P1;PMS_P2;Temp;Humidity;BMP_temperature;BMP_pressure;BME280_temperature;BME280_humidity;BME280_pressure;Samples;Min_cycle;Max_cycle;Signal;HPM_P1;HPM_P2
2022/03/10 00:01:19;;;;;;;25.02;13.98;;;1.70;99.90;;;;;;5071026;28;20056;-67
2022/03/10 00:03:44;;;;;;;23.60;13.85;;;1.70;99.90;;;;;;5071174;28;20031;-67
2022/03/10 00:06:10;;;;;;;22.02;14.55;;;1.70;99.90;;;;;;5052099;28;20384;-66
2022/03/10 00:08:36;;;;;;;20.25;12.98;;;1.90;99.90;;;;;;5070013;28;20112;-66
2022/03/10 00:11:02;;;;;;;24.38;13.68;;;1.70;99.90;;;;;;5051763;28;20404;-67
2022/03/10 00:13:30;;;;;;;22.38;13.57;;;1.70;99.90;;;;;;5070992;28;20166;-67
2022/03/10 00:15:56;;;;;;;21.95;13.82;;;1.60;99.90;;;;;;5069389;28;20540;-67
2022/03/10 00:18:22;;;;;;;23.63;14.65;;;1.60;99.90;;;;;;5070083;28;20258;-66
2022/03/10 00:20:48;;;;;;;22.10;13.10;;;1.60;99.90;;;;;;5071053;28;20120;-67
2022/03/10 00:23:14;;;;;;;22.08;13.70;;;1.60;99.90;;;;;;5070538;28;20091;-67
2022/03/10 00:25:39;;;;;;;19.40;12.48;;;1.70;99.90;;;;;;5070468;28;20499;-67
2022/03/10 00:28:05;;;;;;;21.73;14.25;;;1.50;99.90;;;;;;5052183;28;20048;-66
2022/03/10 00:30:31;;;;;;;21.38;13.27;;;1.50;99.90;;;;;;5051445;28;20072;-67
2022/03/10 00:32:56;;;;;;;21.10;13.57;;;1.50;99.90;;;;;;5070382;28;20029;-66
2022/03/10 00:35:24;;;;;;;22.98;14.02;;;1.50;99.90;;;;;;5070380;28;20121;-66
2022/03/10 00:37:50;;;;;;;23.88;13.60;;;1.40;99.90;;;;;;5070242;28;20123;-67
2022/03/10 00:40:17;;;;;;;20.63;14.02;;;1.40;99.90;;;;;;5069694;28;20055;-66
2022/03/10 00:42:43;;;;;;;22.20;13.40;;;1.30;99.90;;;;;;5070114;28;20048;-67
2022/03/10 00:45:11;;;;;;;21.60;13.02;;;1.30;99.90;;;;;;5070314;28;20233;-66
2022/03/10 00:47:37;;;;;;;23.38;14.00;;;1.30;99.90;;;;;;5069979;28;20029;-66
2022/03/10 00:50:05;;;;;;;22.35;12.73;;;1.30;99.90;;;;;;5051850;28;20043;-66
2022/03/10 00:52:31;;;;;;;21.55;13.13;;;1.30;99.90;;;;;;5070662;28;20085;-66
2022/03/10 00:54:56;;;;;;;20.63;12.68;;;1.30;99.90;;;;;;5052530;28;20427;-66
2022/03/10 00:57:23;;;;;;;24.08;13.63;;;1.40;99.90;;;;;;5069430;28;20036;-66
2022/03/10 00:59:49;;;;;;;24.80;13.48;;;1.40;99.90;;;;;;5035319;28;20043;-66
2022/03/10 01:02:15;;;;;;;25.65;14.43;;;1.40;99.90;;;;;;5070466;28;20033;-66
2022/03/10 01:04:41;;;;;;;20.92;13.48;;;1.40;99.90;;;;;;5070026;28;20044;-66
2022/03/10 01:07:07;;;;;;;23.40;13.18;;;1.40;99.90;;;;;;5068771;28;20408;-66
2022/03/10 01:09:32;;;;;;;21.58;13.13;;;1.40;99.90;;;;;;5068222;28;20150;-66
2022/03/10 01:11:58;;;;;;;21.92;13.63;;;1.30;99.90;;;;;;5068350;28;20127;-66
2022/03/10 01:14:24;;;;;;;22.25;14.07;;;1.50;99.90;;;;;;5068436;28;20040;-67
2022/03/10 01:16:50;;;;;;;20.35;13.68;;;1.30;99.90;;;;;;5070428;28;20036;-66
2022/03/10 01:19:15;;;;;;;21.50;14.13;;;1.20;99.90;;;;;;5067716;28;20099;-66
2022/03/10 01:21:44;;;;;;;21.35;13.63;;;1.20;99.90;;;;;;5069862;28;20038;-66
2022/03/10 01:24:10;;;;;;;22.27;13.55;;;1.20;99.90;;;;;;5048925;28;20040;-66
2022/03/10 01:26:35;;;;;;;22.75;13.25;;;1.20;99.90;;;;;;5069105;28;20067;-67
2022/03/10 01:29:01;;;;;;;21.02;12.98;;;1.20;99.90;;;;;;5049195;28;20109;-66
2022/03/10 01:31:27;;;;;;;24.35;13.55;;;1.10;99.90;;;;;;5069131;28;20041;-66
2022/03/10 01:33:52;;;;;;;20.90;12.82;;;1.10;99.90;;;;;;5068325;28;20125;-66
2022/03/10 01:36:18;;;;;;;22.42;13.50;;;1.00;99.90;;;;;;5067050;28;20051;-66
2022/03/10 01:38:44;;;;;;;22.48;13.13;;;1.00;99.90;;;;;;5067570;28;20059;-66
2022/03/10 01:41:09;;;;;;;25.88;13.50;;;1.00;99.90;;;;;;5068675;28;20064;-66
2022/03/10 01:43:57;;;;;;;20.23;13.93;;;1.00;99.90;;;;;;5050705;28;20435;-66
2022/03/10 01:46:23;;;;;;;22.23;13.40;;;1.00;99.90;;;;;;5068005;28;20032;-66
2022/03/10 01:48:49;;;;;;;21.98;13.63;;;1.00;99.90;;;;;;5068651;28;20048;-67
2022/03/10 01:51:15;;;;;;;23.08;13.45;;;1.00;99.90;;;;;;5067437;28;20048;-66
2022/03/10 01:53:42;;;;;;;22.13;14.07;;;1.00;99.90;;;;;;5068588;28;20041;-66
2022/03/10 01:56:09;;;;;;;24.65;14.40;;;1.00;99.90;;;;;;5034605;28;20430;-66
2022/03/10 01:58:34;;;;;;;24.63;14.27;;;1.00;99.90;;;;;;5069060;28;20056;-66
2022/03/10 02:01:00;;;;;;;20.80;14.10;;;1.00;99.90;;;;;;5069427;28;20034;-66
2022/03/10 02:03:26;;;;;;;21.35;12.38;;;1.00;99.90;;;;;;5068801;28;20067;-66
2022/03/10 02:05:53;;;;;;;23.63;14.75;;;1.00;99.90;;;;;;5069318;28;20033;-66
2022/03/10 02:11:04;;;;;;;23.45;13.15;;;1.10;99.90;;;;;;5068205;28;20052;-67
2022/03/10 02:13:29;;;;;;;21.77;13.63;;;1.10;99.90;;;;;;5068894;28;20039;-66
2022/03/10 02:18:39;;;;;;;20.80;13.45;;;1.10;99.90;;;;;;5069631;28;20032;-66
2022/03/10 02:21:05;;;;;;;26.02;14.20;;;1.00;99.90;;;;;;5069085;28;20524;-66
2022/03/10 02:23:31;;;;;;;27.77;14.80;;;1.10;99.90;;;;;;5068529;28;20067;-67
2022/03/10 02:26:00;;;;;;;21.27;13.65;;;1.10;99.90;;;;;;5068511;28;20036;-68
2022/03/10 02:28:27;;;;;;;22.33;13.20;;;1.10;99.90;;;;;;5067301;28;20042;-67
2022/03/10 02:30:54;;;;;;;21.58;13.77;;;1.10;99.90;;;;;;5050166;28;20036;-66
2022/03/10 02:33:20;;;;;;;24.27;14.35;;;1.00;99.90;;;;;;5050338;28;20044;-66
2022/03/10 02:35:46;;;;;;;24.92;13.32;;;1.00;99.90;;;;;;5068191;28;20127;-66
2022/03/10 02:38:17;;;;;;;21.70;13.00;;;1.00;99.90;;;;;;5068069;28;20140;-66
2022/03/10 02:40:44;;;;;;;24.13;13.88;;;1.00;99.90;;;;;;5068010;28;20046;-66
2022/03/10 02:43:10;;;;;;;25.33;14.20;;;1.00;99.90;;;;;;5068616;28;20040;-66
2022/03/10 02:45:36;;;;;;;23.83;13.45;;;1.00;99.90;;;;;;5068023;28;20044;-66
2022/03/10 02:48:02;;;;;;;21.25;13.45;;;1.00;99.90;;;;;;5068556;28;20127;-66
2022/03/10 02:50:28;;;;;;;22.77;14.00;;;1.00;99.90;;;;;;5068526;28;21026;-66
2022/03/10 02:52:54;;;;;;;24.85;13.82;;;1.00;99.90;;;;;;5068261;28;20082;-66
2022/03/10 02:55:20;;;;;;;26.05;14.55;;;1.00;99.90;;;;;;5068154;28;20044;-66
2022/03/10 02:57:46;;;;;;;20.15;13.98;;;1.00;99.90;;;;;;5068361;28;20048;-66
2022/03/10 03:00:14;;;;;;;21.67;13.52;;;1.00;99.90;;;;;;5068498;28;20032;-66
2022/03/10 03:02:40;;;;;;;24.08;13.43;;;0.90;99.90;;;;;;5068795;28;20150;-66
2022/03/10 03:05:12;;;;;;;25.70;14.10;;;1.00;99.90;;;;;;5068231;28;20515;-66
2022/03/10 03:07:38;;;;;;;22.42;13.57;;;0.90;99.90;;;;;;5068261;28;20040;-66
2022/03/10 03:10:05;;;;;;;23.35;13.48;;;0.90;99.90;;;;;;5068244;28;20035;-66
2022/03/10 03:12:31;;;;;;;21.95;13.95;;;0.90;99.90;;;;;;5068806;28;20033;-66
2022/03/10 03:14:57;;;;;;;24.77;14.18;;;0.90;99.90;;;;;;5068293;28;20064;-66
2022/03/10 03:17:24;;;;;;;24.05;14.52;;;0.90;99.90;;;;;;5068511;28;20044;-66
2022/03/10 03:19:51;;;;;;;25.25;14.43;;;0.90;99.90;;;;;;5068415;28;20392;-66
2022/03/10 03:22:17;;;;;;;26.48;14.50;;;0.90;99.90;;;;;;5068547;28;20039;-67
2022/03/10 03:24:44;;;;;;;24.38;14.32;;;0.80;99.90;;;;;;5068057;28;20037;-67
2022/03/10 03:27:13;;;;;;;21.85;13.23;;;0.80;99.90;;;;;;5068766;28;20036;-66
2022/03/10 03:29:40;;;;;;;23.85;13.77;;;0.80;99.90;;;;;;5067658;28;20032;-66
2022/03/10 03:32:06;;;;;;;21.75;13.50;;;0.80;99.90;;;;;;5067819;28;20509;-66
2022/03/10 03:34:31;;;;;;;22.70;14.05;;;0.80;99.90;;;;;;5067332;28;20404;-66
2022/03/10 03:36:57;;;;;;;22.33;13.73;;;0.80;99.90;;;;;;5068717;28;20047;-66
2022/03/10 03:39:23;;;;;;;22.95;14.27;;;0.80;99.90;;;;;;5067958;28;20057;-66
2022/03/10 03:41:48;;;;;;;23.25;14.40;;;0.80;99.90;;;;;;5068580;28;20094;-66
2022/03/10 03:44:14;;;;;;;22.25;14.57;;;0.70;99.90;;;;;;5067950;28;20036;-66
2022/03/10 03:46:41;;;;;;;25.42;14.10;;;0.70;99.90;;;;;;5070901;28;20060;-66
2022/03/10 03:49:08;;;;;;;25.90;14.40;;;0.70;99.90;;;;;;5071434;28;20036;-66
2022/03/10 03:51:34;;;;;;;23.00;13.80;;;0.70;99.90;;;;;;5071713;28;20032;-66
2022/03/10 03:54:00;;;;;;;21.45;13.75;;;0.70;99.90;;;;;;5053095;28;20097;-66
2022/03/10 03:56:26;;;;;;;22.02;13.95;;;0.70;99.90;;;;;;5071433;28;20048;-66
2022/03/10 03:58:51;;;;;;;26.23;14.13;;;0.70;99.90;;;;;;5071662;28;20051;-67
2022/03/10 04:01:18;;;;;;;23.05;14.82;;;0.70;99.90;;;;;;5070952;28;20131;-67
2022/03/10 04:03:43;;;;;;;22.15;14.48;;;0.60;99.90;;;;;;5052996;28;20032;-66
2022/03/10 04:06:09;;;;;;;25.45;14.50;;;0.60;99.90;;;;;;5071317;28;20427;-66
2022/03/10 04:08:35;;;;;;;22.25;14.23;;;0.60;99.90;;;;;;5070906;28;20036;-66
2022/03/10 04:11:01;;;;;;;22.17;13.82;;;0.60;99.90;;;;;;5070540;28;20123;-66
2022/03/10 04:13:27;;;;;;;23.33;14.45;;;0.60;99.90;;;;;;5071155;28;20044;-66
2022/03/10 04:15:53;;;;;;;23.42;14.85;;;0.50;99.90;;;;;;5070653;28;20099;-66
2022/03/10 04:18:19;;;;;;;23.02;14.10;;;0.50;99.90;;;;;;5071461;28;20036;-66
2022/03/10 04:20:46;;;;;;;23.58;14.65;;;0.50;99.90;;;;;;5071470;28;20060;-66
2022/03/10 04:23:12;;;;;;;24.83;14.80;;;0.50;99.90;;;;;;5070928;28;20036;-66
2022/03/10 04:25:38;;;;;;;23.73;14.38;;;0.50;99.90;;;;;;5071475;28;20374;-66
2022/03/10 04:28:04;;;;;;;24.48;14.88;;;0.50;99.90;;;;;;5071313;28;20044;-66
2022/03/10 04:30:32;;;;;;;24.17;14.38;;;0.50;99.90;;;;;;5070625;28;20040;-66
2022/03/10 04:32:59;;;;;;;25.00;14.27;;;0.40;99.90;;;;;;5069759;28;20475;-67
2022/03/10 04:35:25;;;;;;;26.48;15.10;;;0.50;99.90;;;;;;5070750;28;20043;-67
2022/03/10 04:37:52;;;;;;;22.23;14.45;;;0.40;99.90;;;;;;5070123;28;20079;-67
2022/03/10 04:40:19;;;;;;;23.42;15.07;;;0.40;99.90;;;;;;5070594;28;20117;-66
2022/03/10 04:42:46;;;;;;;28.65;15.27;;;0.40;99.90;;;;;;5070431;28;20124;-66
2022/03/10 04:45:11;;;;;;;25.48;15.13;;;0.40;99.90;;;;;;5070414;28;20476;-66
2022/03/10 04:47:38;;;;;;;23.05;14.77;;;0.50;99.90;;;;;;5070281;28;20063;-66
2022/03/10 04:50:06;;;;;;;25.58;15.02;;;0.40;99.90;;;;;;5068465;28;20036;-66
2022/03/10 04:52:32;;;;;;;21.83;14.02;;;0.40;99.90;;;;;;5070693;28;20548;-66
2022/03/10 04:54:58;;;;;;;28.20;15.10;;;0.40;99.90;;;;;;5069829;28;20408;-66
2022/03/10 04:57:24;;;;;;;25.45;14.85;;;0.40;99.90;;;;;;5070702;28;20040;-66
2022/03/10 04:59:50;;;;;;;25.80;14.40;;;0.40;99.90;;;;;;5052529;28;20036;-66
2022/03/10 05:02:16;;;;;;;22.63;14.45;;;1.00;99.90;;;;;;5070517;28;20040;-66
2022/03/10 05:04:42;;;;;;;21.90;14.25;;;0.40;99.90;;;;;;5070411;28;20028;-66
2022/03/10 05:07:08;;;;;;;26.85;15.93;;;0.30;99.90;;;;;;5070961;28;20114;-66
2022/03/10 05:09:33;;;;;;;24.15;14.68;;;0.30;99.90;;;;;;5069846;28;20097;-66
2022/03/10 05:11:59;;;;;;;24.73;14.52;;;0.30;99.90;;;;;;5052170;28;20101;-66
2022/03/10 05:14:25;;;;;;;23.95;14.27;;;0.30;99.90;;;;;;5069620;28;20440;-66
2022/03/10 05:16:51;;;;;;;26.38;15.02;;;0.20;99.90;;;;;;5069978;28;20033;-66
2022/03/10 05:19:17;;;;;;;22.05;14.60;;;0.20;99.90;;;;;;5070557;28;20033;-66
2022/03/10 05:21:43;;;;;;;22.85;14.93;;;0.20;99.90;;;;;;5069858;28;20129;-66
2022/03/10 05:24:09;;;;;;;25.73;14.68;;;0.20;99.90;;;;;;5069087;28;20072;-66
2022/03/10 05:26:34;;;;;;;25.85;15.52;;;0.20;99.90;;;;;;5069834;28;20040;-66
2022/03/10 05:29:00;;;;;;;26.63;15.45;;;0.20;99.90;;;;;;5069951;28;20402;-66
2022/03/10 05:31:28;;;;;;;24.40;15.07;;;0.20;99.90;;;;;;5068798;28;20052;-66
2022/03/10 05:33:53;;;;;;;25.25;15.68;;;0.20;99.90;;;;;;5069614;28;20365;-66
2022/03/10 05:36:19;;;;;;;26.10;14.93;;;0.20;99.90;;;;;;5069570;28;20052;-67
2022/03/10 05:38:45;;;;;;;25.20;15.27;;;0.20;99.90;;;;;;5051717;28;20445;-67
2022/03/10 05:41:11;;;;;;;24.40;15.32;;;0.20;99.90;;;;;;5051255;28;20451;-66
2022/03/10 05:43:37;;;;;;;26.13;15.15;;;0.20;99.90;;;;;;5069165;28;20489;-66
2022/03/10 05:46:04;;;;;;;24.17;15.00;;;0.20;99.90;;;;;;5069213;28;20036;-66
2022/03/10 05:48:30;;;;;;;24.65;14.43;;;0.20;99.90;;;;;;5068553;28;20076;-67
2022/03/10 05:50:56;;;;;;;25.90;14.68;;;0.20;99.90;;;;;;5069742;28;20078;-66
2022/03/10 05:53:22;;;;;;;25.58;15.20;;;0.20;99.90;;;;;;5068724;28;20136;-66
2022/03/10 05:55:47;;;;;;;24.05;14.60;;;0.20;99.90;;;;;;5069011;28;20667;-66
2022/03/10 05:58:13;;;;;;;30.05;14.52;;;0.20;99.90;;;;;;5051336;28;20120;-66
2022/03/10 06:00:40;;;;;;;24.00;14.50;;;0.20;99.90;;;;;;5069085;28;20029;-66
2022/03/10 06:03:06;;;;;;;27.65;14.50;;;0.20;99.90;;;;;;5068247;28;20040;-66
2022/03/10 06:05:33;;;;;;;23.92;14.38;;;0.30;99.90;;;;;;5052513;28;20397;-66
2022/03/10 06:07:59;;;;;;;27.38;15.25;;;0.20;99.90;;;;;;5069139;28;20039;-66
2022/03/10 06:10:25;;;;;;;25.70;15.30;;;0.30;99.90;;;;;;5067979;28;20040;-66
2022/03/10 06:12:51;;;;;;;22.15;14.52;;;0.30;99.90;;;;;;5069708;28;20122;-66
2022/03/10 06:15:18;;;;;;;22.98;14.18;;;0.30;99.90;;;;;;5069155;28;20108;-66
2022/03/10 06:17:43;;;;;;;23.42;13.52;;;0.30;99.90;;;;;;5068903;28;20094;-66
2022/03/10 06:20:11;;;;;;;27.13;14.80;;;0.30;99.90;;;;;;5068313;28;20024;-66
2022/03/10 06:22:37;;;;;;;22.30;14.25;;;0.30;99.90;;;;;;5068273;28;20546;-66
2022/03/10 06:25:04;;;;;;;22.90;14.70;;;0.40;99.90;;;;;;5050730;28;20073;-66
2022/03/10 06:27:30;;;;;;;27.48;15.30;;;0.40;99.90;;;;;;5067814;28;20048;-67
2022/03/10 06:29:56;;;;;;;24.73;14.98;;;0.40;99.90;;;;;;5068912;28;20044;-66
2022/03/10 06:32:23;;;;;;;23.08;14.55;;;0.40;99.90;;;;;;5068892;28;20551;-66
2022/03/10 06:34:51;;;;;;;24.85;14.43;;;0.40;99.90;;;;;;5069387;28;20079;-67
2022/03/10 06:37:18;;;;;;;22.48;14.23;;;0.40;99.90;;;;;;5069152;28;20029;-66
2022/03/10 06:39:44;;;;;;;24.05;14.88;;;0.50;99.90;;;;;;5068172;28;20048;-66
2022/03/10 06:42:10;;;;;;;24.40;14.80;;;0.50;99.90;;;;;;5067839;28;20036;-66
2022/03/10 06:44:36;;;;;;;24.92;14.73;;;0.50;99.90;;;;;;5068201;28;20041;-67
2022/03/10 06:47:07;;;;;;;25.40;15.05;;;0.60;99.90;;;;;;5066407;28;20040;-66
2022/03/10 06:49:33;;;;;;;31.40;17.50;;;0.60;99.90;;;;;;5066518;28;20404;-66
2022/03/10 06:51:59;;;;;;;20.58;13.65;;;0.60;99.90;;;;;;5049250;28;20040;-66
2022/03/10 06:54:25;;;;;;;23.77;14.07;;;0.70;99.90;;;;;;5068837;28;20052;-66
2022/03/10 06:56:51;;;;;;;21.42;13.52;;;0.70;99.90;;;;;;5069046;28;20037;-66
2022/03/10 06:59:17;;;;;;;25.55;14.35;;;0.80;99.90;;;;;;5069236;28;20097;-66
2022/03/10 07:01:42;;;;;;;23.55;14.27;;;0.90;99.90;;;;;;5050450;28;20033;-66
2022/03/10 07:04:08;;;;;;;23.83;13.73;;;0.90;99.90;;;;;;5067306;28;20033;-66
2022/03/10 07:06:34;;;;;;;24.27;14.10;;;1.00;99.90;;;;;;5067018;28;20032;-66
2022/03/10 07:08:59;;;;;;;21.98;13.38;;;1.10;99.90;;;;;;5068663;28;20071;-66
2022/03/10 07:11:25;;;;;;;22.52;13.23;;;1.10;99.90;;;;;;5068460;28;20041;-66
2022/03/10 07:13:52;;;;;;;24.40;13.82;;;1.20;99.90;;;;;;5067477;28;20123;-66
2022/03/10 07:16:18;;;;;;;25.08;13.50;;;1.40;99.90;;;;;;5067907;28;20134;-66
2022/03/10 07:18:50;;;;;;;23.10;13.18;;;1.40;99.90;;;;;;5069596;28;20048;-66
2022/03/10 07:21:20;;;;;;;24.25;13.40;;;1.50;99.90;;;;;;5070968;28;20033;-66
2022/03/10 07:23:46;;;;;;;24.45;13.07;;;1.60;99.90;;;;;;5053611;28;20094;-66
2022/03/10 07:26:13;;;;;;;24.00;13.70;;;1.70;99.90;;;;;;5072770;28;20044;-65
2022/03/10 07:28:39;;;;;;;20.52;13.02;;;1.80;99.90;;;;;;5071558;28;20377;-65
2022/03/10 07:31:04;;;;;;;24.27;12.63;;;1.90;99.90;;;;;;5071509;28;20045;-66
2022/03/10 07:33:30;;;;;;;22.80;12.70;;;2.10;99.90;;;;;;5072093;28;20489;-65
2022/03/10 07:35:56;;;;;;;28.33;12.70;;;2.20;99.90;;;;;;5054018;28;20447;-65
2022/03/10 07:38:22;;;;;;;20.50;12.18;;;2.30;99.90;;;;;;5072023;28;20061;-65
2022/03/10 07:40:48;;;;;;;21.05;12.75;;;2.40;99.90;;;;;;5072086;28;20045;-65
2022/03/10 07:43:13;;;;;;;23.77;12.85;;;2.40;99.90;;;;;;5072013;28;20036;-65
2022/03/10 07:45:39;;;;;;;21.05;12.10;;;2.50;99.90;;;;;;5069594;28;20028;-65
2022/03/10 07:48:05;;;;;;;24.05;12.60;;;2.60;99.90;;;;;;5055250;28;20036;-65
2022/03/10 07:50:31;;;;;;;22.63;12.93;;;2.80;99.90;;;;;;5070824;28;20186;-65
2022/03/10 07:52:56;;;;;;;24.40;13.30;;;2.90;99.90;;;;;;5054172;28;20067;-65
2022/03/10 07:55:22;;;;;;;21.85;12.93;;;3.00;99.90;;;;;;5071223;28;20040;-65
2022/03/10 07:57:49;;;;;;;21.20;12.07;;;3.10;99.90;;;;;;5071261;28;20041;-65
2022/03/10 08:00:15;;;;;;;21.80;11.35;;;3.20;99.90;;;;;;5053862;28;20044;-65
2022/03/10 08:02:41;;;;;;;20.00;12.75;;;3.30;99.90;;;;;;5071083;28;20147;-65
2022/03/10 08:05:08;;;;;;;21.30;12.45;;;3.50;99.90;;;;;;5071417;28;20062;-65
2022/03/10 08:07:34;;;;;;;17.73;11.98;;;3.70;99.90;;;;;;5072067;28;20048;-65
2022/03/10 08:10:01;;;;;;;20.60;12.82;;;3.80;99.90;;;;;;5070390;28;20041;-65
2022/03/10 08:12:32;;;;;;;20.20;12.20;;;4.00;99.90;;;;;;5071860;28;20051;-65
2022/03/10 08:14:58;;;;;;;23.00;12.70;;;4.10;99.90;;;;;;5070272;28;20400;-65
2022/03/10 08:17:27;;;;;;;22.08;12.85;;;4.20;99.90;;;;;;5069968;28;20056;-65
2022/03/10 08:19:54;;;;;;;21.83;13.00;;;4.30;99.90;;;;;;5053509;28;20078;-66
2022/03/10 08:22:21;;;;;;;19.65;11.30;;;4.50;99.90;;;;;;5071338;28;20621;-66
2022/03/10 08:24:47;;;;;;;22.35;12.60;;;4.60;99.90;;;;;;5071126;28;20028;-66
2022/03/10 08:27:15;;;;;;;23.45;13.32;;;4.70;99.90;;;;;;5070889;28;20040;-65
2022/03/10 08:29:41;;;;;;;21.38;12.60;;;4.80;99.90;;;;;;5069117;28;20041;-66
2022/03/10 08:32:08;;;;;;;19.40;12.43;;;5.00;99.90;;;;;;5069326;28;20052;-66
2022/03/10 08:34:35;;;;;;;21.67;13.00;;;5.10;99.90;;;;;;5051851;28;20138;-66
2022/03/10 08:37:01;;;;;;;21.02;12.82;;;5.40;99.90;;;;;;5071534;28;20033;-66
2022/03/10 08:39:26;;;;;;;19.95;12.40;;;5.40;99.90;;;;;;5070639;28;20048;-66
2022/03/10 08:41:53;;;;;;;20.08;12.38;;;5.50;99.90;;;;;;5071089;28;21413;-66
2022/03/10 08:44:20;;;;;;;19.23;12.73;;;5.70;99.90;;;;;;5070678;28;20076;-66
2022/03/10 08:46:46;;;;;;;21.63;12.93;;;5.80;99.90;;;;;;5071436;28;20112;-66
2022/03/10 08:49:13;;;;;;;21.60;13.77;;;6.00;99.90;;;;;;5071028;28;20044;-66
2022/03/10 08:51:39;;;;;;;21.80;13.43;;;6.10;99.90;;;;;;5070477;28;20400;-66
2022/03/10 08:54:05;;;;;;;20.35;12.70;;;6.20;99.90;;;;;;5071080;28;20043;-66
2022/03/10 08:56:31;;;;;;;22.13;13.07;;;6.30;99.90;;;;;;5071278;28;20044;-67
2022/03/10 08:58:57;;;;;;;21.45;12.98;;;6.50;99.90;;;;;;5070679;28;20084;-66
2022/03/10 09:01:24;;;;;;;19.55;12.55;;;6.50;99.80;;;;;;5051653;28;20032;-66
2022/03/10 09:03:50;;;;;;;18.35;12.07;;;6.60;99.40;;;;;;5035902;28;20033;-66
2022/03/10 09:06:16;;;;;;;23.52;13.13;;;6.90;98.40;;;;;;5066374;28;20033;-66
2022/03/10 09:08:44;;;;;;;20.20;12.80;;;7.00;97.60;;;;;;5069301;28;20044;-66
2022/03/10 09:11:10;;;;;;;21.38;12.75;;;7.10;97.50;;;;;;5049374;28;20037;-66
2022/03/10 09:13:36;;;;;;;20.42;13.65;;;7.20;97.00;;;;;;5067381;28;21072;-66
2022/03/10 09:16:02;;;;;;;21.42;12.77;;;7.30;96.30;;;;;;5050374;28;20048;-66
2022/03/10 09:18:27;;;;;;;21.52;13.00;;;7.50;95.20;;;;;;5069772;28;20059;-66
2022/03/10 09:20:53;;;;;;;20.02;12.80;;;7.60;95.40;;;;;;5069041;28;20032;-66
2022/03/10 09:23:19;;;;;;;20.52;12.85;;;7.80;95.30;;;;;;5051268;28;20477;-66
2022/03/10 09:25:44;;;;;;;17.58;12.27;;;7.90;93.90;;;;;;5070237;28;20032;-66
2022/03/10 09:28:10;;;;;;;23.45;13.52;;;7.90;93.80;;;;;;5069851;28;20037;-66
2022/03/10 09:30:36;;;;;;;20.95;13.35;;;8.10;92.40;;;;;;5069580;28;20052;-66
2022/03/10 09:33:02;;;;;;;18.85;12.52;;;8.10;92.70;;;;;;5069359;28;20118;-66
2022/03/10 09:35:28;;;;;;;23.48;13.45;;;8.20;92.40;;;;;;5070279;28;20062;-66
2022/03/10 09:37:54;;;;;;;18.55;12.25;;;8.30;91.80;;;;;;5048385;28;20057;-66
2022/03/10 09:40:20;;;;;;;24.48;12.88;;;8.40;92.30;;;;;;5050057;28;20052;-66
2022/03/10 09:42:49;;;;;;;21.25;13.93;;;8.50;91.90;;;;;;5041932;28;20029;-66
2022/03/10 09:45:17;;;;;;;24.95;14.18;;;8.60;91.90;;;;;;5034287;28;20378;-66
2022/03/10 09:47:44;;;;;;;21.58;13.10;;;8.70;91.80;;;;;;5042051;28;20431;-66
2022/03/10 09:50:13;;;;;;;19.10;12.88;;;8.70;92.00;;;;;;5042049;28;20134;-66
2022/03/10 09:52:40;;;;;;;22.50;13.68;;;8.80;90.70;;;;;;5040766;28;20037;-66
2022/03/10 09:55:07;;;;;;;21.88;13.93;;;8.90;90.50;;;;;;5041963;28;20036;-66
2022/03/10 09:57:37;;;;;;;22.33;13.75;;;9.00;90.40;;;;;;5044722;28;20033;-66
2022/03/10 10:00:05;;;;;;;20.38;13.98;;;9.10;90.60;;;;;;5048982;28;20036;-66
2022/03/10 10:02:30;;;;;;;19.15;13.23;;;9.20;90.00;;;;;;5041018;28;20037;-66
2022/03/10 10:04:56;;;;;;;20.85;13.32;;;9.20;90.10;;;;;;5040025;28;20393;-66
2022/03/10 10:07:27;;;;;;;19.13;13.18;;;9.30;89.90;;;;;;5042262;28;20067;-66
2022/03/10 10:09:56;;;;;;;23.23;14.38;;;9.50;88.30;;;;;;5042731;28;20084;-66
2022/03/10 10:12:27;;;;;;;20.10;14.15;;;9.60;89.40;;;;;;5042158;28;20132;-66
2022/03/10 10:14:54;;;;;;;18.17;13.25;;;9.60;88.50;;;;;;5041518;28;20051;-66
2022/03/10 10:17:28;;;;;;;21.45;14.30;;;9.70;87.80;;;;;;5040756;28;20049;-66
2022/03/10 10:19:56;;;;;;;26.05;15.23;;;9.70;86.50;;;;;;5042815;28;20038;-66
2022/03/10 10:22:24;;;;;;;25.13;14.13;;;9.80;87.10;;;;;;5046986;28;20045;-66
2022/03/10 10:25:00;;;;;;;21.38;14.80;;;9.90;88.20;;;;;;5040904;28;20037;-66
2022/03/10 10:27:29;;;;;;;22.63;14.52;;;9.90;85.00;;;;;;5042803;28;20044;-66
2022/03/10 10:29:56;;;;;;;24.85;15.15;;;10.10;83.40;;;;;;5049524;28;20045;-66
2022/03/10 10:32:30;;;;;;;21.60;15.10;;;10.10;83.10;;;;;;5046350;28;20080;-66
2022/03/10 10:35:23;;;;;;;23.35;15.13;;;10.30;82.60;;;;;;5040710;28;20037;-66
2022/03/10 10:37:54;;;;;;;24.52;14.68;;;10.40;80.50;;;;;;5050429;28;20137;-66
2022/03/10 10:40:31;;;;;;;21.48;14.30;;;10.40;81.90;;;;;;5069519;28;20033;-66
2022/03/10 10:42:57;;;;;;;22.02;14.82;;;10.50;81.30;;;;;;5069582;28;20595;-66
2022/03/10 10:45:31;;;;;;;22.70;14.90;;;10.60;80.60;;;;;;5069367;28;20111;-66
2022/03/10 10:48:08;;;;;;;22.45;14.90;;;10.70;81.60;;;;;;5069228;28;20051;-66
2022/03/10 10:50:40;;;;;;;21.45;14.15;;;10.80;81.60;;;;;;5068714;28;20041;-67
2022/03/10 10:53:07;;;;;;;23.02;15.73;;;10.80;81.40;;;;;;5069402;28;20048;-67
2022/03/10 10:55:45;;;;;;;26.23;15.75;;;10.80;82.10;;;;;;5072085;28;20032;-66
2022/03/10 10:58:14;;;;;;;21.45;14.88;;;11.00;80.40;;;;;;5073269;28;20040;-66
2022/03/10 11:00:46;;;;;;;27.15;15.73;;;11.00;79.40;;;;;;5073178;28;20029;-66
2022/03/10 11:03:26;;;;;;;26.27;16.65;;;11.20;78.20;;;;;;5072752;28;20071;-66
2022/03/10 11:05:53;;;;;;;26.83;16.67;;;11.30;78.20;;;;;;5052952;28;20127;-66
2022/03/10 11:08:25;;;;;;;27.60;17.13;;;11.40;78.00;;;;;;5071753;28;20045;-66
2022/03/10 11:10:51;;;;;;;24.55;15.18;;;11.50;77.00;;;;;;5072357;28;20064;-66
2022/03/10 11:13:17;;;;;;;24.45;15.65;;;11.50;77.80;;;;;;5071392;28;20040;-66
2022/03/10 11:15:44;;;;;;;25.92;16.33;;;11.50;77.80;;;;;;5053253;28;20588;-66
2022/03/10 11:18:12;;;;;;;27.67;18.08;;;11.50;77.90;;;;;;5072072;28;20082;-66
2022/03/10 11:20:48;;;;;;;25.73;15.98;;;11.60;77.80;;;;;;5071344;28;20047;-66
2022/03/10 11:23:56;;;;;;;28.05;16.30;;;11.70;78.00;;;;;;5072146;28;20041;-66
2022/03/10 11:27:03;;;;;;;26.50;15.82;;;11.80;78.40;;;;;;5031633;28;20496;-66
2022/03/10 11:29:32;;;;;;;27.73;17.05;;;11.80;76.80;;;;;;5057136;28;20049;-66
2022/03/10 11:31:58;;;;;;;27.83;16.58;;;11.90;78.10;;;;;;5070202;28;20090;-66
2022/03/10 11:34:43;;;;;;;27.25;16.67;;;12.00;76.20;;;;;;5069103;28;20439;-66
2022/03/10 11:37:10;;;;;;;26.10;16.38;;;12.00;74.40;;;;;;5069819;28;20039;-66
2022/03/10 11:39:53;;;;;;;26.17;16.58;;;12.00;76.90;;;;;;5071140;28;20054;-66
2022/03/10 11:42:30;;;;;;;24.63;16.50;;;12.10;74.80;;;;;;5069957;28;20041;-66
2022/03/10 11:45:10;;;;;;;26.08;16.08;;;12.10;75.70;;;;;;5053737;28;20338;-67
2022/03/10 11:47:37;;;;;;;23.60;15.40;;;12.10;74.20;;;;;;5071266;28;20683;-66
2022/03/10 11:50:22;;;;;;;25.67;16.25;;;12.20;75.30;;;;;;5069256;28;20120;-66
2022/03/10 11:52:55;;;;;;;27.10;16.55;;;12.20;75.20;;;;;;5070957;28;20123;-66
2022/03/10 11:55:22;;;;;;;25.85;15.65;;;12.30;74.10;;;;;;5072119;28;20115;-66
2022/03/10 11:57:53;;;;;;;25.98;15.57;;;12.20;74.80;;;;;;5071917;28;20024;-66
2022/03/10 12:00:23;;;;;;;25.20;15.77;;;12.30;73.80;;;;;;5070131;28;20511;-67
2022/03/10 12:02:58;;;;;;;25.15;16.38;;;12.30;73.90;;;;;;5071789;28;20115;-66
2022/03/10 12:05:24;;;;;;;22.87;14.90;;;12.40;73.20;;;;;;5071943;28;20052;-67
2022/03/10 12:07:53;;;;;;;24.20;16.15;;;12.50;73.50;;;;;;5071794;28;20366;-66
2022/03/10 12:10:19;;;;;;;25.75;15.82;;;12.50;74.00;;;;;;5068884;28;20369;-67
2022/03/10 12:12:46;;;;;;;26.95;15.45;;;12.60;72.60;;;;;;5070549;28;20036;-67
2022/03/10 12:15:35;;;;;;;23.45;15.80;;;12.60;70.20;;;;;;5053495;28;20051;-67
2022/03/10 12:18:18;;;;;;;24.10;15.73;;;12.60;72.30;;;;;;5057927;28;20037;-68
2022/03/10 12:20:46;;;;;;;23.77;15.73;;;12.70;70.20;;;;;;5070279;28;20162;-67
2022/03/10 12:23:15;;;;;;;25.67;16.05;;;12.70;71.80;;;;;;5070373;28;20115;-66
2022/03/10 12:25:48;;;;;;;26.33;15.23;;;12.80;72.30;;;;;;5070791;28;20480;-67
2022/03/10 12:28:42;;;;;;;23.73;15.52;;;12.80;72.10;;;;;;5071726;28;21411;-67
2022/03/10 12:31:19;;;;;;;26.27;16.10;;;12.80;71.20;;;;;;5067269;28;20515;-66
2022/03/10 12:33:51;;;;;;;24.27;14.88;;;12.80;71.70;;;;;;5052109;28;20394;-67
2022/03/10 12:36:37;;;;;;;24.45;15.00;;;12.90;72.40;;;;;;5071225;28;20040;-66
2022/03/10 12:39:07;;;;;;;23.98;14.60;;;12.90;70.20;;;;;;5070210;28;20102;-67
2022/03/10 12:41:41;;;;;;;24.10;14.63;;;12.90;71.50;;;;;;5071377;28;20037;-67
2022/03/10 12:44:10;;;;;;;25.00;15.00;;;12.90;72.00;;;;;;5051956;28;20040;-67